createdAt,value
2018-11-05T00:01:53.247Z,100203.80
2018-11-05T00:04:22.481Z,100200.94
2018-11-05T00:06:50.714Z,100195.06
2018-11-05T00:09:18.968Z,100194.34
2018-11-05T00:11:47.331Z,100197.09
2018-11-05T00:14:15.998Z,100190.70
2018-11-05T00:16:46.622Z,100187.02
2018-11-05T00:19:17.224Z,100181.11
2018-11-05T00:21:46.738Z,100183.48
2018-11-05T00:24:18.458Z,100174.72
2018-11-05T00:26:48.200Z,100164.11
2018-11-05T00:29:17.564Z,100167.05
2018-11-05T00:31:46.255Z,100163.41
2018-11-05T00:34:14.606Z,100166.23
2018-11-05T00:36:43.095Z,100157.68
2018-11-05T00:39:12.524Z,100150.83
2018-11-05T00:41:40.765Z,100147.43
2018-11-05T00:44:09.078Z,100147.55
2018-11-05T00:46:37.525Z,100145.04
2018-11-05T00:49:06.006Z,100143.09
2018-11-05T00:51:34.521Z,100145.26
2018-11-05T00:54:03.008Z,100146.36
2018-11-05T00:56:31.285Z,100142.34
2018-11-05T00:58:59.388Z,100144.00
2018-11-05T01:01:27.697Z,100143.05
2018-11-05T01:03:55.816Z,100137.37
2018-11-05T01:06:23.892Z,100123.65
2018-11-05T01:08:51.956Z,100122.81
2018-11-05T01:11:20.064Z,100122.19
2018-11-05T01:13:48.223Z,100123.45
2018-11-05T01:16:16.383Z,100123.74
2018-11-05T01:18:44.695Z,100124.25
2018-11-05T01:21:12.767Z,100131.69
2018-11-05T01:23:40.830Z,100128.20
2018-11-05T01:26:08.926Z,100127.47
2018-11-05T01:28:37.012Z,100126.38
2018-11-05T01:31:05.342Z,100121.23
2018-11-05T01:33:33.403Z,100112.33
2018-11-05T01:36:01.542Z,100106.88
2018-11-05T01:38:29.712Z,100109.21
2018-11-05T01:40:57.825Z,100106.23
2018-11-05T01:43:25.907Z,100097.93
2018-11-05T01:45:54.024Z,100095.53
2018-11-05T01:48:22.100Z,100089.66
2018-11-05T01:50:50.276Z,100086.64
2018-11-05T01:53:18.381Z,100085.30
2018-11-05T01:55:46.485Z,100093.78
2018-11-05T01:58:14.565Z,100115.27
2018-11-05T02:00:42.645Z,100102.68
2018-11-05T02:03:10.805Z,100091.66
2018-11-05T02:05:38.916Z,100088.34
2018-11-05T02:08:07.153Z,100085.54
2018-11-05T02:10:35.248Z,100082.35
2018-11-05T02:13:03.378Z,100074.45
2018-11-05T02:15:31.654Z,100072.12
2018-11-05T02:17:59.775Z,100068.92
2018-11-05T02:20:27.916Z,100064.91
2018-11-05T02:22:56.022Z,100058.52
2018-11-05T02:25:24.116Z,100056.32
2018-11-05T02:27:52.262Z,100046.94
2018-11-05T02:30:20.401Z,100045.81
2018-11-05T02:32:48.598Z,100051.45
2018-11-05T02:35:17.715Z,100053.49
2018-11-05T02:37:46.476Z,100059.78
2018-11-05T02:40:15.875Z,100065.21
2018-11-05T02:42:44.559Z,100058.56
2018-11-05T02:45:13.765Z,100059.10
2018-11-05T02:47:41.924Z,100062.17
2018-11-05T02:50:17.207Z,100059.32
2018-11-05T02:52:46.068Z,100046.77
2018-11-05T02:55:14.145Z,100039.19
2018-11-05T02:57:42.232Z,100047.99
2018-11-05T03:00:14.248Z,100043.53
2018-11-05T03:02:42.648Z,100035.48
2018-11-05T03:05:12.726Z,100037.50
2018-11-05T03:07:41.082Z,100028.78
2018-11-05T03:10:10.447Z,100026.94
2018-11-05T03:12:38.835Z,100023.64
2018-11-05T03:15:07.864Z,100021.28
2018-11-05T03:17:36.032Z,100015.98
2018-11-05T03:20:04.156Z,100009.77
2018-11-05T03:22:32.246Z,100014.33
2018-11-05T03:25:00.338Z,100018.06
2018-11-05T03:27:28.416Z,100015.98
2018-11-05T03:29:56.595Z,100011.42
2018-11-05T03:32:30.958Z,100000.35
2018-11-05T03:34:59.037Z,100007.79
2018-11-05T03:37:27.128Z,100014.36
2018-11-05T03:39:55.236Z,100011.84
2018-11-05T03:42:23.413Z,100006.70
2018-11-05T03:44:51.524Z,99999.52
2018-11-05T03:47:19.589Z,99991.86
2018-11-05T03:49:47.686Z,100009.25
2018-11-05T03:52:15.763Z,99986.11
2018-11-05T03:54:43.909Z,99983.44
2018-11-05T03:57:11.998Z,99981.17
2018-11-05T03:59:40.084Z,99979.77
2018-11-05T04:02:08.206Z,99994.06
2018-11-05T04:04:36.334Z,100002.80
2018-11-05T04:07:04.476Z,100008.39
2018-11-05T04:09:32.593Z,100009.51
2018-11-05T04:12:00.706Z,99994.73
2018-11-05T04:14:28.863Z,99987.04
2018-11-05T04:16:57.062Z,99984.23
2018-11-05T04:19:25.222Z,99992.18
2018-11-05T04:21:53.315Z,99989.72
2018-11-05T04:24:21.435Z,99991.34
2018-11-05T04:26:49.560Z,99991.50
2018-11-05T04:29:17.688Z,99994.22
2018-11-05T04:31:45.858Z,99993.74
2018-11-05T04:34:13.954Z,99986.40
2018-11-05T04:36:42.074Z,99993.01
2018-11-05T04:39:15.795Z,99978.13
2018-11-05T04:41:43.934Z,99981.07
2018-11-05T04:44:12.043Z,99982.09
2018-11-05T04:46:40.498Z,99989.05
2018-11-05T04:49:09.293Z,99995.12
2018-11-05T04:51:37.428Z,100006.45
2018-11-05T04:54:06.084Z,100016.34
2018-11-05T04:56:34.204Z,100009.70
2018-11-05T04:59:02.377Z,99999.11
2018-11-05T05:01:30.684Z,99987.59
2018-11-05T05:03:58.767Z,99983.91
2018-11-05T05:06:26.858Z,99982.35
2018-11-05T05:08:54.952Z,99979.41
2018-11-05T05:11:23.079Z,99979.55
2018-11-05T05:13:51.196Z,99979.51
2018-11-05T05:16:19.363Z,99977.34
2018-11-05T05:18:47.442Z,99977.69
2018-11-05T05:21:15.593Z,99973.13
2018-11-05T05:23:43.703Z,99982.80
2018-11-05T05:26:11.804Z,99985.12
2018-11-05T05:28:39.907Z,99987.20
2018-11-05T05:31:08.002Z,99985.19
2018-11-05T05:33:36.321Z,99983.75
2018-11-05T05:36:04.552Z,99993.84
2018-11-05T05:38:32.687Z,99991.34
2018-11-05T05:41:01.021Z,100000.31
2018-11-05T05:43:28.948Z,100003.13
2018-11-05T05:45:57.102Z,99999.94
2018-11-05T05:48:25.326Z,99992.84
2018-11-05T05:50:53.471Z,100002.09
2018-11-05T05:53:21.580Z,100012.83
2018-11-05T05:55:49.671Z,100032.37
2018-11-05T05:58:17.799Z,100023.94
2018-11-05T06:00:45.943Z,100019.22
2018-11-05T06:03:14.071Z,100016.24
2018-11-05T06:05:42.152Z,100017.20
2018-11-05T06:08:10.283Z,100023.84
2018-11-05T06:10:38.381Z,100023.66
2018-11-05T06:13:06.499Z,100022.60
2018-11-05T06:15:34.592Z,100026.37
2018-11-05T06:18:02.772Z,100011.30
2018-11-05T06:20:30.853Z,100011.26
2018-11-05T06:22:58.979Z,100003.27
2018-11-05T06:25:27.159Z,99996.02
2018-11-05T06:27:55.283Z,99991.70
2018-11-05T06:30:23.515Z,99979.86
2018-11-05T06:32:52.105Z,99983.70
2018-11-05T06:35:20.893Z,99978.70
2018-11-05T06:37:48.958Z,99980.03
2018-11-05T06:40:18.359Z,99978.92
2018-11-05T06:42:46.681Z,99982.14
2018-11-05T06:45:16.066Z,99983.23
2018-11-05T06:47:45.131Z,99993.67
2018-11-05T06:50:16.569Z,99987.98
2018-11-05T06:52:45.191Z,99994.43
2018-11-05T06:55:13.900Z,99992.06
2018-11-05T06:57:42.256Z,99981.11
2018-11-05T07:00:14.880Z,99976.91
2018-11-05T07:02:43.217Z,99987.81
2018-11-05T07:05:11.468Z,99982.14
2018-11-05T07:07:39.659Z,99984.69
2018-11-05T07:10:09.243Z,99984.35
2018-11-05T07:12:37.400Z,99989.49
2018-11-05T07:15:06.839Z,99991.20
2018-11-05T07:17:34.944Z,99996.00
2018-11-05T07:20:03.112Z,99999.09
2018-11-05T07:22:31.295Z,100007.33
2018-11-05T07:24:59.415Z,100014.41
2018-11-05T07:27:27.699Z,99998.92
2018-11-05T07:29:55.786Z,100006.20
2018-11-05T07:32:23.997Z,100005.66
2018-11-05T07:34:52.117Z,99992.31
2018-11-05T07:37:20.244Z,99994.16
2018-11-05T07:39:48.347Z,99986.11
2018-11-05T07:42:16.480Z,99996.66
2018-11-05T07:44:44.648Z,100006.84
2018-11-05T07:47:12.752Z,99991.43
2018-11-05T07:49:40.851Z,99998.45
2018-11-05T07:52:08.970Z,100000.63
2018-11-05T07:54:37.163Z,100011.73
2018-11-05T07:57:05.449Z,100010.20
2018-11-05T07:59:33.593Z,100000.11
2018-11-05T08:02:01.725Z,99999.20
2018-11-05T08:04:29.835Z,99999.05
2018-11-05T08:06:57.943Z,100004.59
2018-11-05T08:09:26.040Z,100010.59
2018-11-05T08:11:54.152Z,100011.19
2018-11-05T08:14:22.327Z,100009.53
2018-11-05T08:16:50.496Z,100010.71
2018-11-05T08:19:18.619Z,99998.23
2018-11-05T08:21:46.759Z,99992.72
2018-11-05T08:24:14.877Z,99999.08
2018-11-05T08:26:42.988Z,99990.82
2018-11-05T08:29:11.111Z,99996.17
2018-11-05T08:31:39.308Z,99996.71
2018-11-05T08:34:07.446Z,100005.42
2018-11-05T08:36:35.565Z,99999.30
2018-11-05T08:39:04.948Z,100001.05
2018-11-05T08:41:33.055Z,99994.77
2018-11-05T08:44:01.199Z,99988.25
2018-11-05T08:46:29.291Z,99989.37
2018-11-05T08:48:57.399Z,99995.73
2018-11-05T08:51:25.766Z,99984.02
2018-11-05T08:53:53.659Z,99996.49
2018-11-05T08:56:21.695Z,99986.42
2018-11-05T08:58:49.832Z,99981.17
2018-11-05T09:01:18.590Z,99984.30
2018-11-05T09:03:48.102Z,99994.30
2018-11-05T09:06:16.658Z,99995.18
2018-11-05T09:08:44.853Z,99991.85
2018-11-05T09:11:13.654Z,99986.78
2018-11-05T09:13:41.490Z,99976.52
2018-11-05T09:16:09.625Z,99976.44
2018-11-05T09:18:37.675Z,99963.22
2018-11-05T09:21:05.796Z,99957.62
2018-11-05T09:23:33.907Z,99963.59
2018-11-05T09:26:02.015Z,99958.80
2018-11-05T09:28:30.132Z,99964.02
2018-11-05T09:30:58.363Z,99960.23
2018-11-05T09:33:26.460Z,99959.64
2018-11-05T09:35:54.584Z,99958.96
2018-11-05T09:38:22.685Z,99960.98
2018-11-05T09:40:50.785Z,99962.77
2018-11-05T09:43:18.866Z,99959.96
2018-11-05T09:45:46.985Z,99957.34
2018-11-05T09:48:15.082Z,99955.39
2018-11-05T09:50:43.270Z,99960.12
2018-11-05T09:53:11.263Z,99952.47
2018-11-05T09:55:39.416Z,99947.63
2018-11-05T09:58:07.488Z,99961.92
2018-11-05T10:00:35.602Z,99966.48
2018-11-05T10:03:09.157Z,99966.65
2018-11-05T10:05:37.148Z,99969.03
2018-11-05T10:08:05.236Z,99981.31
2018-11-05T10:10:33.407Z,99984.42
2018-11-05T10:13:01.496Z,99976.03
2018-11-05T10:15:29.802Z,99980.55
2018-11-05T10:17:57.931Z,99972.16
2018-11-05T10:20:26.180Z,99975.31
2018-11-05T10:22:54.298Z,99969.83
2018-11-05T10:25:22.413Z,99970.54
2018-11-05T10:27:51.305Z,99964.25
2018-11-05T10:30:21.749Z,99956.55
2018-11-05T10:32:49.845Z,99959.73
2018-11-05T10:35:18.399Z,99963.03
2018-11-05T10:37:46.512Z,99956.53
2018-11-05T10:40:17.581Z,99952.22
2018-11-05T10:42:46.417Z,99944.03
2018-11-05T10:45:15.586Z,99946.98
2018-11-05T10:47:43.725Z,99947.69
2018-11-05T10:50:12.970Z,99945.22
2018-11-05T10:52:41.009Z,99928.66
2018-11-05T10:55:09.144Z,99928.44
2018-11-05T10:57:37.349Z,99918.25
2018-11-05T11:00:17.194Z,99929.20
2018-11-05T11:02:49.511Z,99927.13
2018-11-05T11:05:17.606Z,99923.92
2018-11-05T11:07:45.720Z,99932.40
2018-11-05T11:10:13.824Z,99931.49
2018-11-05T11:12:41.935Z,99929.18
2018-11-05T11:15:10.112Z,99931.05
2018-11-05T11:17:38.757Z,99925.37
2018-11-05T11:20:08.305Z,99922.81
2018-11-05T11:22:36.446Z,99916.77
2018-11-05T11:25:05.053Z,99912.84
2018-11-05T11:27:33.159Z,99913.70
2018-11-05T11:30:01.258Z,99912.21
2018-11-05T11:32:29.424Z,99906.88
2018-11-05T11:34:58.151Z,99915.23
2018-11-05T11:37:26.435Z,99901.91
2018-11-05T11:39:54.523Z,99903.16
2018-11-05T11:42:22.683Z,99898.84
2018-11-05T11:44:50.898Z,99890.76
2018-11-05T11:47:18.966Z,99884.16
2018-11-05T11:49:47.057Z,99873.43
2018-11-05T11:52:15.184Z,99879.70
2018-11-05T11:54:43.381Z,99879.86
2018-11-05T11:57:11.504Z,99876.98
2018-11-05T11:59:39.637Z,99864.92
2018-11-05T12:02:13.214Z,99854.31
2018-11-05T12:04:41.281Z,99844.10
2018-11-05T12:07:09.609Z,99832.03
2018-11-05T12:09:37.891Z,99827.57
2018-11-05T12:12:06.694Z,99834.89
2018-11-05T12:14:34.832Z,99828.15
2018-11-05T12:17:03.019Z,99824.35
2018-11-05T12:19:31.417Z,99823.34
2018-11-05T12:21:59.540Z,99833.21
2018-11-05T12:24:27.783Z,99824.41
2018-11-05T12:26:55.869Z,99822.16
2018-11-05T12:29:24.152Z,99818.96
2018-11-05T12:31:52.390Z,99823.31
2018-11-05T12:34:20.527Z,99810.05
2018-11-05T12:36:48.663Z,99799.68
2018-11-05T12:39:16.763Z,99808.41
2018-11-05T12:41:44.850Z,99804.48
2018-11-05T12:44:12.952Z,99795.33
2018-11-05T12:46:41.940Z,99804.57
2018-11-05T12:49:10.051Z,99806.15
2018-11-05T12:51:38.152Z,99800.48
2018-11-05T12:54:06.258Z,99791.41
2018-11-05T12:56:34.352Z,99799.08
2018-11-05T12:59:02.480Z,99804.94
2018-11-05T13:01:31.268Z,99800.00
2018-11-05T13:03:59.629Z,99792.44
2018-11-05T13:06:27.708Z,99790.38
2018-11-05T13:08:55.823Z,99787.31
2018-11-05T13:11:23.907Z,99798.73
2018-11-05T13:13:52.016Z,99798.41
2018-11-05T13:16:20.163Z,99798.41
2018-11-05T13:18:48.354Z,99803.50
2018-11-05T13:21:16.396Z,99804.45
2018-11-05T13:23:45.348Z,99802.17
2018-11-05T13:26:14.258Z,99806.55
2018-11-05T13:28:42.510Z,99799.76
2018-11-05T13:31:10.607Z,99797.72
2018-11-05T13:33:38.839Z,99791.33
2018-11-05T13:36:06.963Z,99788.98
2018-11-05T13:38:35.373Z,99786.77
2018-11-05T13:41:03.439Z,99793.52
2018-11-05T13:43:31.556Z,99785.91
2018-11-05T13:46:00.147Z,99778.88
2018-11-05T13:48:28.297Z,99766.30
2018-11-05T13:50:55.895Z,99772.39
2018-11-05T13:53:24.025Z,99767.56
2018-11-05T13:55:52.179Z,99763.56
2018-11-05T13:58:20.328Z,99761.77
2018-11-05T14:00:48.387Z,99755.67
2018-11-05T14:03:16.503Z,99752.38
2018-11-05T14:05:44.685Z,99756.53
2018-11-05T14:08:12.703Z,99751.05
2018-11-05T14:10:40.855Z,99749.13
2018-11-05T14:13:08.948Z,99753.54
2018-11-05T14:15:37.057Z,99755.45
2018-11-05T14:18:05.312Z,99758.14
2018-11-05T14:20:33.421Z,99760.23
2018-11-05T14:23:01.536Z,99758.30
2018-11-05T14:25:29.676Z,99755.86
2018-11-05T14:27:57.956Z,99760.38
2018-11-05T14:30:25.914Z,99751.45
2018-11-05T14:32:54.015Z,99754.52
2018-11-05T14:35:22.160Z,99757.45
2018-11-05T14:37:50.287Z,99771.87
2018-11-05T14:40:19.103Z,99773.13
2018-11-05T14:42:47.270Z,99774.27
2018-11-05T14:45:16.556Z,99771.42
2018-11-05T14:47:45.502Z,99774.91
2018-11-05T14:50:15.219Z,99775.39
2018-11-05T14:52:43.307Z,99779.44
2018-11-05T14:55:13.723Z,99793.02
2018-11-05T14:57:42.400Z,99788.67
2018-11-05T15:00:12.411Z,99779.02
2018-11-05T15:02:41.209Z,99786.59
2018-11-05T15:05:10.555Z,99781.36
2018-11-05T15:07:39.176Z,99777.31
2018-11-05T15:10:08.831Z,99781.61
2018-11-05T15:12:36.915Z,99776.25
2018-11-05T15:15:05.874Z,99779.63
2018-11-05T15:17:34.107Z,99775.38
2018-11-05T15:20:02.643Z,99770.84
2018-11-05T15:22:30.380Z,99768.98
2018-11-05T15:24:58.471Z,99760.13
2018-11-05T15:27:26.600Z,99762.03
2018-11-05T15:29:54.707Z,99768.41
2018-11-05T15:32:22.800Z,99761.11
2018-11-05T15:34:50.926Z,99764.27
2018-11-05T15:37:19.046Z,99767.86
2018-11-05T15:39:47.133Z,99772.52
2018-11-05T15:42:15.308Z,99777.19
2018-11-05T15:44:43.499Z,99778.98
2018-11-05T15:47:11.635Z,99777.84
2018-11-05T15:49:39.706Z,99773.09
2018-11-05T15:52:08.057Z,99771.95
2018-11-05T15:54:36.124Z,99774.16
2018-11-05T15:57:04.199Z,99773.27
2018-11-05T15:59:32.317Z,99765.89
2018-11-05T16:02:05.583Z,99762.88
2018-11-05T16:04:33.767Z,99769.23
2018-11-05T16:07:01.828Z,99771.23
2018-11-05T16:09:30.013Z,99780.44
2018-11-05T16:11:58.376Z,99791.97
2018-11-05T16:14:26.500Z,99789.34
2018-11-05T16:16:54.707Z,99792.22
2018-11-05T16:19:22.831Z,99795.80
2018-11-05T16:21:50.961Z,99789.68
2018-11-05T16:24:19.169Z,99796.25
2018-11-05T16:26:47.275Z,99800.77
2018-11-05T16:29:15.407Z,99807.50
2018-11-05T16:31:43.511Z,99800.47
2018-11-05T16:34:11.687Z,99801.61
2018-11-05T16:36:39.799Z,99798.20
2018-11-05T16:39:09.938Z,99798.20
2018-11-05T16:41:38.375Z,99793.86
2018-11-05T16:44:06.598Z,99796.44
2018-11-05T16:46:34.700Z,99798.58
2018-11-05T16:49:03.018Z,99804.22
2018-11-05T16:51:31.117Z,99799.71
2018-11-05T16:53:59.231Z,99806.67
2018-11-05T16:56:27.323Z,99809.16
2018-11-05T16:58:55.552Z,99818.14
2018-11-05T17:01:24.154Z,99803.45
2018-11-05T17:03:52.031Z,99802.25
2018-11-05T17:06:20.173Z,99805.38
2018-11-05T17:08:48.361Z,99806.16
2018-11-05T17:11:16.654Z,99809.13
2018-11-05T17:13:44.837Z,99811.17
2018-11-05T17:16:12.966Z,99811.95
2018-11-05T17:18:41.071Z,99819.10
2018-11-05T17:21:09.162Z,99822.33
2018-11-05T17:23:37.354Z,99829.55
2018-11-05T17:26:11.072Z,99831.34
2018-11-05T17:28:50.665Z,99832.97
2018-11-05T17:31:21.869Z,99834.10
2018-11-05T17:33:50.588Z,99832.01
2018-11-05T17:36:24.757Z,99824.40
2018-11-05T17:38:55.698Z,99830.72
2018-11-05T17:41:25.582Z,99826.10
2018-11-05T17:43:56.548Z,99820.89
2018-11-05T17:46:28.381Z,99821.58
2018-11-05T17:48:57.528Z,99822.74
2018-11-05T17:51:28.043Z,99821.41
2018-11-05T17:53:56.184Z,99814.84
2018-11-05T17:56:24.290Z,99802.98
2018-11-05T17:58:55.831Z,99801.80
2018-11-05T18:01:26.685Z,99806.41
2018-11-05T18:03:58.513Z,99801.41
2018-11-05T18:06:28.845Z,99807.50
2018-11-05T18:09:01.894Z,99800.88
2018-11-05T18:11:39.905Z,99814.45
2018-11-05T18:14:14.859Z,99815.19
2018-11-05T18:16:46.175Z,99821.53
2018-11-05T18:19:20.338Z,99812.29
2018-11-05T18:21:54.618Z,99813.33
2018-11-05T18:24:29.832Z,99820.75
2018-11-05T18:26:59.183Z,99817.39
2018-11-05T18:29:33.303Z,99816.05
2018-11-05T18:32:02.296Z,99815.58
2018-11-05T18:34:32.739Z,99815.52
2018-11-05T18:37:02.079Z,99821.72
2018-11-05T18:39:30.969Z,99822.90
2018-11-05T18:41:59.524Z,99815.38
2018-11-05T18:44:28.609Z,99817.23
2018-11-05T18:46:57.557Z,99824.42
2018-11-05T18:49:27.179Z,99825.78
2018-11-05T18:51:56.470Z,99821.38
2018-11-05T18:54:26.653Z,99821.14
2018-11-05T18:56:56.599Z,99821.72
2018-11-05T18:59:25.600Z,99818.05
2018-11-05T19:01:54.205Z,99818.45
2018-11-05T19:04:23.496Z,99823.82
2018-11-05T19:06:53.039Z,99822.42
2018-11-05T19:09:22.254Z,99823.27
2018-11-05T19:11:51.284Z,99829.12
2018-11-05T19:14:21.610Z,99819.05
2018-11-05T19:16:50.880Z,99818.22
2018-11-05T19:19:19.412Z,99817.45
2018-11-05T19:21:50.528Z,99826.84
2018-11-05T19:24:20.657Z,99822.98
2018-11-05T19:26:51.313Z,99826.68
2018-11-05T19:29:20.846Z,99832.34
2018-11-05T19:45:23.969Z,99850.03
2018-11-05T19:47:55.239Z,99846.54
2018-11-05T19:50:24.694Z,99839.44
2018-11-05T19:52:55.940Z,99842.63
2018-11-05T19:55:24.417Z,99851.36
2018-11-05T19:57:55.190Z,99841.14
2018-11-05T20:00:27.523Z,99851.30
2018-11-05T20:02:57.649Z,99851.59
2018-11-05T20:05:27.542Z,99849.80
2018-11-05T20:07:57.020Z,99852.39
2018-11-05T20:10:32.238Z,99855.92
2018-11-05T20:13:07.798Z,99845.38
2018-11-05T20:15:39.197Z,99844.14
2018-11-05T20:18:09.489Z,99842.17
2018-11-05T20:20:39.409Z,99847.08
2018-11-05T20:23:09.371Z,99852.81
2018-11-05T20:25:41.023Z,99853.97
2018-11-05T20:28:10.186Z,99846.44
2018-11-05T20:30:40.622Z,99845.42
2018-11-05T20:33:15.016Z,99846.91
2018-11-05T20:35:43.525Z,99839.28
2018-11-05T20:38:12.285Z,99840.74
2018-11-05T20:40:46.862Z,99848.17
2018-11-05T20:43:15.678Z,99847.58
2018-11-05T20:45:44.872Z,99861.03
2018-11-05T20:48:13.761Z,99860.61
2018-11-05T20:50:43.790Z,99852.84
2018-11-05T20:53:12.398Z,99867.87
2018-11-05T20:55:43.051Z,99874.79
2018-11-05T20:58:13.256Z,99880.14
2018-11-05T21:00:43.084Z,99873.10
2018-11-05T21:03:12.860Z,99875.86
2018-11-05T21:05:41.768Z,99880.73
2018-11-05T21:08:10.396Z,99877.87
2018-11-05T21:10:41.371Z,99879.33
2018-11-05T21:13:09.956Z,99875.08
2018-11-05T21:15:39.099Z,99879.70
2018-11-05T21:18:08.923Z,99875.78
2018-11-05T21:20:40.178Z,99874.78
2018-11-05T21:23:15.772Z,99876.86
2018-11-05T21:25:45.245Z,99874.49
2018-11-05T21:28:15.596Z,99876.02
2018-11-05T21:30:50.564Z,99880.48
2018-11-05T21:33:23.190Z,99881.20
2018-11-05T21:35:51.663Z,99880.25
2018-11-05T21:38:20.543Z,99875.55
2018-11-05T21:40:51.314Z,99876.45
2018-11-05T21:43:29.049Z,99878.08
2018-11-05T21:46:33.735Z,99878.17
2018-11-05T21:49:02.426Z,99878.67
2018-11-05T21:51:31.057Z,99884.94
2018-11-05T21:54:00.156Z,99879.80
2018-11-05T21:56:32.617Z,99882.73
2018-11-05T21:59:06.790Z,99885.56
2018-11-05T22:01:38.755Z,99882.07
2018-11-05T22:04:07.849Z,99881.31
2018-11-05T22:06:38.162Z,99884.56
2018-11-05T22:09:09.972Z,99888.43
2018-11-05T22:11:38.435Z,99892.59
2018-11-05T22:14:12.357Z,99900.33
2018-11-05T22:16:41.122Z,99901.96
2018-11-05T22:19:11.305Z,99906.17
2018-11-05T22:21:39.766Z,99901.44
2018-11-05T22:24:08.863Z,99896.22
2018-11-05T22:26:38.516Z,99899.00
2018-11-05T22:29:08.263Z,99903.79
2018-11-05T22:31:42.132Z,99893.23
2018-11-05T22:34:11.581Z,99896.58
2018-11-05T22:36:41.078Z,99894.67
2018-11-05T22:39:11.219Z,99900.66
2018-11-05T22:41:44.788Z,99902.66
2018-11-05T22:44:13.605Z,99898.80
2018-11-05T22:46:41.966Z,99897.31
2018-11-05T22:49:14.072Z,99893.03
2018-11-05T22:51:45.143Z,99892.66
2018-11-05T22:54:14.000Z,99894.61
2018-11-05T22:56:42.346Z,99903.91
2018-11-05T22:59:13.859Z,99906.06
2018-11-05T23:01:47.895Z,99909.55
2018-11-05T23:04:19.458Z,99906.06
2018-11-05T23:06:51.129Z,99907.84
2018-11-05T23:09:20.319Z,99909.28
2018-11-05T23:11:49.606Z,99913.41
2018-11-05T23:14:19.089Z,99914.19
2018-11-05T23:16:48.335Z,99911.87
2018-11-05T23:19:17.970Z,99906.76
2018-11-05T23:21:46.276Z,99901.19
2018-11-05T23:24:15.166Z,99897.15
2018-11-05T23:26:43.398Z,99891.23
2018-11-05T23:29:13.258Z,99893.79
2018-11-05T23:31:52.357Z,99892.30
2018-11-05T23:34:22.917Z,99903.16
2018-11-05T23:36:54.178Z,99903.11
2018-11-05T23:39:22.643Z,99904.48
2018-11-05T23:41:51.819Z,99900.40
2018-11-05T23:44:21.189Z,99898.93
2018-11-05T23:46:49.845Z,99906.17
2018-11-05T23:49:17.928Z,99913.88
2018-11-05T23:51:46.124Z,99916.06
2018-11-05T23:54:14.224Z,99906.64
2018-11-05T23:56:42.316Z,99905.23
2018-11-05T23:59:10.426Z,99902.77
